Flying Cat 3 — SX6671 — position and weather

sailwx.info

Track history (hours):
 
Tides and Currents Weather Stations Pressure Air Temp Water Temp Dewpoint Dewpoint Depression Visibility Wind Speed Wind Dir Waves Ship Positions

Flying Cat 3

Last reported at 2014-Sep-07 21:33 UTC. Time now 2014-Oct-23 04:38 UTC.
Position N 37°45' E 023°43'.
Warning: this ship's position is 45 days out of date.

Length 48 m; draft 1.5 m.

Type: High speed craft. MMSI: 239552000.

Date/timePositionNaut miles runAvg speedWind from/ knotsBaromVisibWave heightAir tempDewpointWater temp
2014-Sep-07 21:33N 37°45' E 023°43'6329.2
2014-Sep-07 19:24N 36°57' E 024°35'2010.8
2014-Sep-07 17:34N 36°41' E 024°50'9 8.9
2014-Sep-07 16:34N 36°44' E 024°40'11 8.4
2014-Sep-07 15:14N 36°52' E 024°30'6328.9
2014-Sep-07 13:04N 37°41' E 023°42'7 0.4
2014-Sep-06 21:33N 37°48' E 023°41'6731.0
2014-Sep-06 19:23N 36°56' E 024°35'1111.8
2014-Sep-06 18:25N 36°47' E 024°27'2023.3
2014-Sep-06 17:33N 36°41' E 024°51'9 9.5
2014-Sep-06 16:33N 36°44' E 024°40'11 8.4
2014-Sep-06 15:15N 36°52' E 024°30'6328.9
2014-Sep-06 13:05N 37°41' E 023°41'10 0.7
2014-Sep-05 21:33N 37°51' E 023°40'7032.3
2014-Sep-05 19:23N 36°56' E 024°35'2011.1
2014-Sep-05 17:33N 36°41' E 024°51'20 9.5
2014-Sep-05 15:24N 36°51' E 024°30'6327.1
2014-Sep-05 13:05N 37°41' E 023°41'1629.4
2014-Sep-05 12:33N 37°57' E 023°38'0 0.3
2014-Sep-05 11:33N 37°57' E 023°38'0 0.0
2014-Sep-04 22:28N 37°57' E 023°38'7626.2
2014-Sep-04 19:33N 36°54' E 024°33'8 6.5
2014-Sep-04 18:23N 36°47' E 024°28'1923.3
2014-Sep-04 17:33N 36°41' E 024°51'1713.7
2014-Sep-04 16:18N 36°46' E 024°31'5 5.6
2014-Sep-04 15:23N 36°52' E 024°30'6227.3
2014-Sep-04 13:07N 37°41' E 023°42'1629.4
2014-Sep-04 12:33N 37°57' E 023°38'0 0.3
2014-Sep-04 11:33N 37°57' E 023°38'0 0.0
2014-Sep-04 10:33N 37°57' E 023°38'9 0.7
2014-Sep-03 21:33N 37°48' E 023°41'6831.0
2014-Sep-03 19:22N 36°56' E 024°35'1910.5
2014-Sep-03 17:34N 36°42' E 024°50'8 8.2
2014-Sep-03 16:34N 36°44' E 024°40'11 8.7
2014-Sep-03 15:15N 36°53' E 024°31'6228.6
2014-Sep-03 13:05N 37°41' E 023°42'1630.4
2014-Sep-03 12:33N 37°56' E 023°38'0 0.4
2014-Sep-03 11:33N 37°57' E 023°38'0 0.0
2014-Sep-03 10:33N 37°57' E 023°38'0 0.0
2014-Sep-02 22:05N 37°57' E 023°38'1120.5
2014-Sep-02 21:33N 37°46' E 023°42'6529.9
2014-Sep-02 19:23N 36°57' E 024°35'1517.4
2014-Sep-02 18:31N 36°45' E 024°24'2121.9
2014-Sep-02 17:34N 36°42' E 024°50'1813.2
2014-Sep-02 16:12N 36°47' E 024°28'5 6.0
2014-Sep-02 15:24N 36°52' E 024°29'6227.0
2014-Sep-02 13:05N 37°41' E 023°42'1629.5
2014-Sep-02 12:34N 37°56' E 023°38'0 0.4
2014-Sep-02 11:33N 37°57' E 023°38'12 0.9
2014-Sep-01 21:33N 37°45' E 023°43'6429.5
2014-Sep-01 19:23N 36°57' E 024°35'1110.8
2014-Sep-01 18:23N 36°47' E 024°29'1923.0
2014-Sep-01 17:33N 36°41' E 024°51'20 8.7
2014-Sep-01 15:14N 36°53' E 024°31'6128.8
2014-Sep-01 13:06N 37°41' E 023°42'1629.8
2014-Sep-01 12:34N 37°56' E 023°38'0 0.3
2014-Sep-01 11:34N 37°57' E 023°38'0 0.0
2014-Aug-31 22:08N 37°57' E 023°38'1322.1
2014-Aug-31 21:33N 37°44' E 023°43'6429.7
2014-Aug-31 19:25N 36°56' E 024°35'2713.7
2014-Aug-31 17:27N 36°35' E 024°56'1820.0
2014-Aug-31 16:33N 36°45' E 024°37'9 7.7
2014-Aug-31 15:22N 36°50' E 024°27'6227.4
2014-Aug-31 13:06N 37°40' E 023°42'1630.6
2014-Aug-31 12:33N 37°56' E 023°38'0 0.4
2014-Aug-31 11:34N 37°57' E 023°38'0 0.0
2014-Aug-30 00:09N 37°57' E 023°38'1524.2
2014-Aug-29 23:33N 37°43' E 023°44'6220.9
2014-Aug-29 20:33N 36°54' E 024°33'10 4.3
2014-Aug-29 18:10N 36°45' E 024°37'1830.3
2014-Aug-29 17:34N 36°37' E 024°58'2914.6
2014-Aug-29 15:32N 36°52' E 024°26'6024.8
2014-Aug-29 13:08N 37°40' E 023°42'1628.8
2014-Aug-29 12:33N 37°57' E 023°38'0 0.1
2014-Aug-29 11:33N 37°57' E 023°38'0 0.0
2014-Aug-29 10:34N 37°57' E 023°38'  
Track history (hours):
 
Tides and Currents Weather Stations Pressure Air Temp Water Temp Dewpoint Dewpoint Depression Visibility Wind Speed Wind Dir Waves Ship Positions

Flying Cat 3

Last reported at 2014-Sep-07 21:33 UTC. Time now 2014-Oct-23 04:38 UTC.
Position N 37°45' E 023°43'.
Warning: this ship's position is 45 days out of date.

Length 48 m; draft 1.5 m.

Type: High speed craft. MMSI: 239552000.

Date/timePositionNaut miles runAvg speedWind from/ knotsBaromVisibWave heightAir tempDewpointWater temp
2014-Sep-07 21:33N 37°45' E 023°43'6329.2
2014-Sep-07 19:24N 36°57' E 024°35'2010.8
2014-Sep-07 17:34N 36°41' E 024°50'9 8.9
2014-Sep-07 16:34N 36°44' E 024°40'11 8.4
2014-Sep-07 15:14N 36°52' E 024°30'6328.9
2014-Sep-07 13:04N 37°41' E 023°42'7 0.4
2014-Sep-06 21:33N 37°48' E 023°41'6731.0
2014-Sep-06 19:23N 36°56' E 024°35'1111.8
2014-Sep-06 18:25N 36°47' E 024°27'2023.3
2014-Sep-06 17:33N 36°41' E 024°51'9 9.5
2014-Sep-06 16:33N 36°44' E 024°40'11 8.4
2014-Sep-06 15:15N 36°52' E 024°30'6328.9
2014-Sep-06 13:05N 37°41' E 023°41'10 0.7
2014-Sep-05 21:33N 37°51' E 023°40'7032.3
2014-Sep-05 19:23N 36°56' E 024°35'2011.1
2014-Sep-05 17:33N 36°41' E 024°51'20 9.5
2014-Sep-05 15:24N 36°51' E 024°30'6327.1
2014-Sep-05 13:05N 37°41' E 023°41'1629.4
2014-Sep-05 12:33N 37°57' E 023°38'0 0.3
2014-Sep-05 11:33N 37°57' E 023°38'0 0.0
2014-Sep-04 22:28N 37°57' E 023°38'7626.2
2014-Sep-04 19:33N 36°54' E 024°33'8 6.5
2014-Sep-04 18:23N 36°47' E 024°28'1923.3
2014-Sep-04 17:33N 36°41' E 024°51'1713.7
2014-Sep-04 16:18N 36°46' E 024°31'5 5.6
2014-Sep-04 15:23N 36°52' E 024°30'6227.3
2014-Sep-04 13:07N 37°41' E 023°42'1629.4
2014-Sep-04 12:33N 37°57' E 023°38'0 0.3
2014-Sep-04 11:33N 37°57' E 023°38'0 0.0
2014-Sep-04 10:33N 37°57' E 023°38'9 0.7
2014-Sep-03 21:33N 37°48' E 023°41'6831.0
2014-Sep-03 19:22N 36°56' E 024°35'1910.5
2014-Sep-03 17:34N 36°42' E 024°50'8 8.2
2014-Sep-03 16:34N 36°44' E 024°40'11 8.7
2014-Sep-03 15:15N 36°53' E 024°31'6228.6
2014-Sep-03 13:05N 37°41' E 023°42'1630.4
2014-Sep-03 12:33N 37°56' E 023°38'0 0.4
2014-Sep-03 11:33N 37°57' E 023°38'0 0.0
2014-Sep-03 10:33N 37°57' E 023°38'0 0.0
2014-Sep-02 22:05N 37°57' E 023°38'1120.5
2014-Sep-02 21:33N 37°46' E 023°42'6529.9
2014-Sep-02 19:23N 36°57' E 024°35'1517.4
2014-Sep-02 18:31N 36°45' E 024°24'2121.9
2014-Sep-02 17:34N 36°42' E 024°50'1813.2
2014-Sep-02 16:12N 36°47' E 024°28'5 6.0
2014-Sep-02 15:24N 36°52' E 024°29'6227.0
2014-Sep-02 13:05N 37°41' E 023°42'1629.5
2014-Sep-02 12:34N 37°56' E 023°38'0 0.4
2014-Sep-02 11:33N 37°57' E 023°38'12 0.9
2014-Sep-01 21:33N 37°45' E 023°43'6429.5
2014-Sep-01 19:23N 36°57' E 024°35'1110.8
2014-Sep-01 18:23N 36°47' E 024°29'1923.0
2014-Sep-01 17:33N 36°41' E 024°51'20 8.7
2014-Sep-01 15:14N 36°53' E 024°31'6128.8
2014-Sep-01 13:06N 37°41' E 023°42'1629.8
2014-Sep-01 12:34N 37°56' E 023°38'0 0.3
2014-Sep-01 11:34N 37°57' E 023°38'0 0.0
2014-Aug-31 22:08N 37°57' E 023°38'1322.1
2014-Aug-31 21:33N 37°44' E 023°43'6429.7
2014-Aug-31 19:25N 36°56' E 024°35'2713.7
2014-Aug-31 17:27N 36°35' E 024°56'1820.0
2014-Aug-31 16:33N 36°45' E 024°37'9 7.7
2014-Aug-31 15:22N 36°50' E 024°27'6227.4
2014-Aug-31 13:06N 37°40' E 023°42'1630.6
2014-Aug-31 12:33N 37°56' E 023°38'0 0.4
2014-Aug-31 11:34N 37°57' E 023°38'0 0.0
2014-Aug-30 00:09N 37°57' E 023°38'1524.2
2014-Aug-29 23:33N 37°43' E 023°44'6220.9
2014-Aug-29 20:33N 36°54' E 024°33'10 4.3
2014-Aug-29 18:10N 36°45' E 024°37'1830.3
2014-Aug-29 17:34N 36°37' E 024°58'2914.6
2014-Aug-29 15:32N 36°52' E 024°26'6024.8
2014-Aug-29 13:08N 37°40' E 023°42'1628.8
2014-Aug-29 12:33N 37°57' E 023°38'0 0.1
2014-Aug-29 11:33N 37°57' E 023°38'0 0.0
2014-Aug-29 10:34N 37°57' E 023°38'  

Dump ship's entire track history